createdAt,value
2023-02-09T00:01:19.840Z,18.08
2023-02-09T00:03:46.943Z,18.00
2023-02-09T00:06:16.572Z,18.55
2023-02-09T00:08:44.439Z,17.30
2023-02-09T00:11:48.076Z,18.33
2023-02-09T00:14:20.199Z,17.25
2023-02-09T00:16:49.211Z,17.27
2023-02-09T00:19:17.141Z,18.05
2023-02-09T00:21:44.417Z,17.80
2023-02-09T00:24:13.862Z,16.35
2023-02-09T00:26:42.056Z,17.98
2023-02-09T00:29:09.963Z,18.02
2023-02-09T00:31:38.121Z,19.35
2023-02-09T00:34:05.410Z,18.60
2023-02-09T00:36:32.667Z,17.15
2023-02-09T00:38:59.827Z,17.42
2023-02-09T00:41:45.703Z,17.10
2023-02-09T00:44:13.508Z,16.83
2023-02-09T00:46:40.419Z,18.10
2023-02-09T00:49:07.730Z,17.77
2023-02-09T00:51:34.904Z,16.98
2023-02-09T00:54:02.920Z,17.63
2023-02-09T00:56:29.814Z,17.77
2023-02-09T00:58:56.856Z,18.73
2023-02-09T01:01:25.551Z,18.00
2023-02-09T01:03:53.244Z,18.02
2023-02-09T01:06:21.015Z,19.65
2023-02-09T01:08:48.177Z,19.30
2023-02-09T01:11:16.072Z,18.70
2023-02-09T01:13:44.089Z,18.67
2023-02-09T01:16:14.548Z,18.73
2023-02-09T01:18:42.631Z,19.25
2023-02-09T01:21:14.412Z,21.63
2023-02-09T01:23:41.679Z,19.77
2023-02-09T01:26:11.029Z,20.65
2023-02-09T01:28:38.504Z,20.10
2023-02-09T01:31:07.326Z,21.50
2023-02-09T01:33:34.659Z,19.50
2023-02-09T01:36:04.764Z,19.98
2023-02-09T01:38:31.780Z,18.63
2023-02-09T01:40:58.989Z,19.80
2023-02-09T01:43:25.956Z,20.70
2023-02-09T01:45:57.482Z,19.58
2023-02-09T01:48:31.081Z,19.48
2023-02-09T01:51:00.987Z,19.98
2023-02-09T01:53:28.490Z,18.58
2023-02-09T01:56:00.490Z,19.20
2023-02-09T01:58:28.445Z,19.40
2023-02-09T02:00:55.327Z,18.70
2023-02-09T02:03:25.831Z,18.67
2023-02-09T02:06:07.534Z,18.63
2023-02-09T02:09:02.453Z,18.85
2023-02-09T02:11:30.240Z,18.50
2023-02-09T02:13:57.611Z,18.90
2023-02-09T02:16:54.255Z,18.33
2023-02-09T02:19:46.360Z,19.20
2023-02-09T02:22:52.204Z,18.88
2023-02-09T02:25:37.827Z,14.40
2023-02-09T02:31:05.351Z,17.83
2023-02-09T02:33:38.149Z,17.95
2023-02-09T02:36:16.798Z,18.15
2023-02-09T02:39:00.240Z,17.70
2023-02-09T02:41:54.924Z,18.65
2023-02-09T02:44:25.593Z,18.20
2023-02-09T02:46:58.732Z,18.65
2023-02-09T02:49:40.952Z,18.38
2023-02-09T02:52:10.325Z,19.17
2023-02-09T02:54:42.513Z,18.60
2023-02-09T02:57:16.792Z,19.35
2023-02-09T02:59:53.337Z,19.43
2023-02-09T03:02:25.368Z,20.02
2023-02-09T03:04:56.801Z,19.23
2023-02-09T03:07:24.348Z,19.42
2023-02-09T03:09:53.582Z,20.52
2023-02-09T03:12:39.000Z,19.60
2023-02-09T03:15:41.453Z,19.58
2023-02-09T03:18:11.637Z,19.70
2023-02-09T03:20:44.042Z,18.85
2023-02-09T03:23:23.208Z,19.00
2023-02-09T03:25:54.276Z,20.58
2023-02-09T03:28:29.028Z,18.85
2023-02-09T03:30:57.359Z,18.52
2023-02-09T03:33:30.300Z,19.83
2023-02-09T03:36:01.054Z,18.60
2023-02-09T03:38:28.322Z,18.33
2023-02-09T03:40:55.650Z,17.77
2023-02-09T03:43:42.603Z,18.83
2023-02-09T03:46:10.080Z,18.77
2023-02-09T03:48:37.275Z,17.92
2023-02-09T03:51:06.827Z,18.48
2023-02-09T03:53:36.500Z,17.48
2023-02-09T03:56:09.624Z,18.17
2023-02-09T03:58:37.670Z,18.15
2023-02-09T04:01:07.934Z,18.15
2023-02-09T04:03:36.223Z,18.98
2023-02-09T04:06:03.954Z,16.30
2023-02-09T04:08:33.274Z,18.02
2023-02-09T04:11:00.688Z,17.85
2023-02-09T04:13:28.286Z,17.88
2023-02-09T04:15:55.499Z,16.17
2023-02-09T04:18:22.527Z,17.15
2023-02-09T04:20:49.703Z,16.73
2023-02-09T04:23:17.819Z,16.65
2023-02-09T04:25:45.394Z,15.50
2023-02-09T04:28:12.770Z,15.70
2023-02-09T04:30:39.686Z,16.60
2023-02-09T04:33:06.764Z,14.90
2023-02-09T04:35:33.989Z,15.80
2023-02-09T04:38:00.969Z,16.38
2023-02-09T04:40:27.889Z,15.68
2023-02-09T04:42:54.886Z,15.90
2023-02-09T04:45:21.850Z,15.93
2023-02-09T04:47:48.909Z,16.67
2023-02-09T04:50:15.913Z,15.45
2023-02-09T04:52:42.912Z,14.95
2023-02-09T04:55:09.909Z,15.30
2023-02-09T04:57:55.536Z,14.88
2023-02-09T05:00:22.692Z,14.82
2023-02-09T05:02:49.904Z,15.70
2023-02-09T05:05:17.150Z,15.73
2023-02-09T05:07:44.146Z,13.88
2023-02-09T05:10:11.122Z,14.73
2023-02-09T05:12:38.136Z,13.32
2023-02-09T05:15:05.579Z,13.10
2023-02-09T05:17:33.436Z,12.93
2023-02-09T05:20:00.568Z,12.90
2023-02-09T05:22:27.836Z,12.98
2023-02-09T05:24:54.881Z,13.05
2023-02-09T05:27:22.121Z,12.65
2023-02-09T05:29:49.165Z,13.02
2023-02-09T05:32:16.242Z,11.85
2023-02-09T05:34:43.290Z,12.23
2023-02-09T05:37:10.302Z,12.65
2023-02-09T05:39:37.322Z,12.70
2023-02-09T05:42:16.520Z,12.73
2023-02-09T05:44:48.876Z,12.02
2023-02-09T05:47:21.978Z,11.93
2023-02-09T05:49:49.078Z,11.40
2023-02-09T05:52:16.839Z,12.57
2023-02-09T05:54:44.798Z,12.52
2023-02-09T05:57:11.971Z,12.05
2023-02-09T05:59:39.255Z,11.45
2023-02-09T06:02:06.741Z,11.70
2023-02-09T06:04:34.232Z,12.52
2023-02-09T06:07:01.470Z,12.05
2023-02-09T06:09:29.252Z,11.82
2023-02-09T06:11:56.135Z,12.15
2023-02-09T06:14:23.348Z,12.23
2023-02-09T06:16:50.576Z,12.13
2023-02-09T06:19:20.421Z,12.48
2023-02-09T06:21:47.842Z,12.63
2023-02-09T06:24:15.529Z,11.88
2023-02-09T06:26:42.945Z,11.80
2023-02-09T06:29:10.232Z,11.70
2023-02-09T06:31:38.529Z,11.75
2023-02-09T06:34:05.969Z,12.32
2023-02-09T06:36:33.104Z,12.45
2023-02-09T06:39:00.817Z,11.57
2023-02-09T06:41:27.934Z,12.45
2023-02-09T06:43:54.896Z,12.43
2023-02-09T06:46:22.176Z,11.70
2023-02-09T06:48:49.821Z,11.70
2023-02-09T06:51:17.499Z,12.25
2023-02-09T06:53:44.912Z,11.70
2023-02-09T06:56:13.445Z,12.68
2023-02-09T06:58:41.408Z,11.85
2023-02-09T07:01:15.911Z,12.60
2023-02-09T07:03:43.624Z,12.60
2023-02-09T07:06:17.442Z,13.27
2023-02-09T07:08:45.595Z,12.40
2023-02-09T07:11:15.471Z,13.27
2023-02-09T07:13:43.022Z,13.48
2023-02-09T07:16:11.539Z,13.68
2023-02-09T07:18:39.561Z,13.38
2023-02-09T07:21:12.305Z,14.02
2023-02-09T07:23:39.425Z,14.52
2023-02-09T07:26:08.702Z,13.82
2023-02-09T07:28:36.619Z,14.95
2023-02-09T07:31:06.857Z,13.82
2023-02-09T07:33:35.239Z,14.15
2023-02-09T07:36:07.047Z,13.05
2023-02-09T07:38:34.942Z,13.95
2023-02-09T07:41:03.857Z,12.93
2023-02-09T07:43:31.389Z,13.70
2023-02-09T07:46:07.240Z,14.05
2023-02-09T07:48:36.181Z,14.38
2023-02-09T07:51:03.779Z,13.55
2023-02-09T07:53:30.912Z,14.13
2023-02-09T07:55:58.118Z,13.77
2023-02-09T07:58:25.152Z,14.82
2023-02-09T08:00:52.623Z,13.25
2023-02-09T08:03:23.012Z,14.18
2023-02-09T08:05:56.004Z,13.77
2023-02-09T08:08:23.176Z,14.93
2023-02-09T08:10:50.628Z,15.38
2023-02-09T08:13:18.078Z,15.18
2023-02-09T08:15:49.441Z,14.48
2023-02-09T08:18:25.653Z,15.07
2023-02-09T08:20:53.423Z,15.05
2023-02-09T08:23:31.182Z,14.75
2023-02-09T08:26:01.905Z,16.10
2023-02-09T08:28:42.803Z,14.95
2023-02-09T08:31:17.304Z,14.85
2023-02-09T08:33:45.599Z,14.65
2023-02-09T08:36:13.422Z,14.55
2023-02-09T08:38:40.775Z,15.63
2023-02-09T08:41:09.942Z,14.98
2023-02-09T08:43:37.079Z,15.25
2023-02-09T08:46:07.014Z,15.43
2023-02-09T08:48:36.122Z,16.13
2023-02-09T08:51:03.763Z,15.27
2023-02-09T08:53:30.896Z,15.30
2023-02-09T08:55:58.327Z,15.65
2023-02-09T08:58:26.461Z,16.25
2023-02-09T09:00:57.242Z,16.02
2023-02-09T09:03:30.104Z,15.80
2023-02-09T09:06:02.412Z,16.55
2023-02-09T09:08:30.811Z,16.50
2023-02-09T09:10:58.366Z,16.63
2023-02-09T09:13:26.152Z,16.00
2023-02-09T09:15:57.268Z,17.80
2023-02-09T09:18:25.738Z,15.93
2023-02-09T09:20:53.414Z,16.25
2023-02-09T09:23:21.450Z,16.40
2023-02-09T09:25:48.842Z,16.92
2023-02-09T09:28:16.827Z,17.38
2023-02-09T09:30:44.361Z,16.75
2023-02-09T09:33:11.783Z,17.05
2023-02-09T09:35:38.866Z,17.70
2023-02-09T09:38:05.991Z,18.85
2023-02-09T09:40:36.244Z,18.67
2023-02-09T09:43:15.271Z,18.77
2023-02-09T09:45:42.925Z,17.65
2023-02-09T09:48:23.612Z,18.35
2023-02-09T09:51:02.528Z,19.95
2023-02-09T09:53:33.510Z,19.27
2023-02-09T09:56:07.818Z,20.25
2023-02-09T09:58:39.487Z,20.50
2023-02-09T10:01:10.503Z,19.80
2023-02-09T10:03:37.541Z,20.63
2023-02-09T10:06:17.113Z,20.85
2023-02-09T10:09:08.040Z,19.88
2023-02-09T10:12:12.231Z,19.65
2023-02-09T10:14:39.250Z,21.55
2023-02-09T10:17:06.825Z,20.95
2023-02-09T10:19:34.232Z,21.08
2023-02-09T10:22:01.136Z,21.73
2023-02-09T10:24:29.477Z,21.73
2023-02-09T10:27:02.460Z,21.23
2023-02-09T10:29:29.753Z,21.23
2023-02-09T10:32:15.246Z,21.45
2023-02-09T10:34:52.080Z,22.10
2023-02-09T10:37:24.836Z,23.15
2023-02-09T10:40:07.236Z,22.35
2023-02-09T10:42:37.032Z,22.50
2023-02-09T10:45:22.024Z,22.25
2023-02-09T10:48:14.141Z,23.00
2023-02-09T10:51:12.297Z,20.95
2023-02-09T10:53:56.587Z,21.65
2023-02-09T10:56:34.468Z,22.17
2023-02-09T10:59:14.238Z,22.85
2023-02-09T11:01:43.987Z,22.75
2023-02-09T11:04:24.733Z,23.25
2023-02-09T11:07:19.841Z,22.83
2023-02-09T11:09:49.581Z,23.92
2023-02-09T11:12:16.728Z,22.60
2023-02-09T11:14:43.853Z,24.27
2023-02-09T11:17:13.688Z,22.25
2023-02-09T11:19:55.616Z,24.30
2023-02-09T11:22:41.303Z,23.92
2023-02-09T11:25:34.282Z,25.00
2023-02-09T11:28:19.611Z,24.70
2023-02-09T11:30:55.675Z,24.73
2023-02-09T11:33:49.223Z,23.88
2023-02-09T11:36:25.254Z,24.25
2023-02-09T11:39:03.267Z,23.98
2023-02-09T11:41:52.075Z,24.85
2023-02-09T11:44:46.261Z,24.73
2023-02-09T11:47:20.967Z,24.15
2023-02-09T11:49:54.067Z,25.25
2023-02-09T11:52:42.157Z,24.27
2023-02-09T11:55:27.968Z,23.73
2023-02-09T11:58:03.542Z,24.25
2023-02-09T12:00:54.816Z,25.08
2023-02-09T12:03:24.849Z,25.33
2023-02-09T12:05:52.721Z,25.35
2023-02-09T12:08:27.649Z,23.38
2023-02-09T12:11:19.421Z,23.15
2023-02-09T12:14:23.657Z,22.30
2023-02-09T12:17:07.479Z,23.23
2023-02-09T12:19:43.543Z,22.98
2023-02-09T12:22:35.986Z,23.00
2023-02-09T12:25:20.946Z,23.70
2023-02-09T12:28:12.280Z,23.90
2023-02-09T12:30:45.450Z,24.02
2023-02-09T12:33:24.818Z,24.30
2023-02-09T12:36:10.271Z,24.23
2023-02-09T12:39:04.156Z,24.08
2023-02-09T12:41:34.291Z,24.08
2023-02-09T12:44:10.646Z,23.27
2023-02-09T12:46:53.672Z,22.95
2023-02-09T12:49:28.316Z,23.27
2023-02-09T12:52:01.175Z,22.17
2023-02-09T12:54:37.184Z,22.80
2023-02-09T12:57:16.822Z,22.45
2023-02-09T12:59:50.335Z,22.38
2023-02-09T13:02:50.233Z,22.35
2023-02-09T13:05:33.863Z,20.90
2023-02-09T13:08:16.424Z,21.77
2023-02-09T13:10:55.495Z,20.83
2023-02-09T13:13:41.188Z,20.38
2023-02-09T13:16:29.749Z,21.02
2023-02-09T13:19:24.855Z,20.25
2023-02-09T13:22:25.189Z,19.05
2023-02-09T13:25:09.152Z,19.25
2023-02-09T13:27:45.506Z,17.95
2023-02-09T13:30:32.736Z,18.88
2023-02-09T13:33:35.592Z,19.98
2023-02-09T13:36:16.272Z,20.35
2023-02-09T13:38:50.210Z,21.52
2023-02-09T13:41:35.425Z,20.38
2023-02-09T13:44:03.332Z,18.25
2023-02-09T13:46:35.549Z,19.23
2023-02-09T13:49:13.751Z,17.30
2023-02-09T13:51:40.885Z,18.00
2023-02-09T13:54:07.919Z,17.42
2023-02-09T13:56:39.573Z,16.85
2023-02-09T13:59:06.590Z,15.85
2023-02-09T14:01:37.051Z,16.77
2023-02-09T14:04:12.154Z,16.95
2023-02-09T14:06:50.835Z,17.58
2023-02-09T14:09:28.831Z,17.27
2023-02-09T14:12:02.480Z,16.48
2023-02-09T14:14:52.270Z,15.90
2023-02-09T14:17:32.120Z,17.13
2023-02-09T14:20:00.218Z,15.15
2023-02-09T14:22:38.250Z,16.75
2023-02-09T14:25:14.305Z,17.75
2023-02-09T14:27:45.699Z,16.90
2023-02-09T14:30:20.928Z,17.67
2023-02-09T14:32:55.959Z,16.85
2023-02-09T14:35:29.248Z,17.75
2023-02-09T14:37:59.094Z,16.90
2023-02-09T14:40:32.143Z,17.58
2023-02-09T14:43:06.640Z,17.85
2023-02-09T14:45:48.971Z,18.07
2023-02-09T14:48:24.855Z,17.63
2023-02-09T14:50:58.049Z,18.48
2023-02-09T14:53:29.147Z,17.98
2023-02-09T14:55:57.842Z,18.15
2023-02-09T14:58:29.310Z,19.40
2023-02-09T15:01:02.451Z,21.90
2023-02-09T15:03:29.826Z,20.02
2023-02-09T15:06:00.261Z,21.02
2023-02-09T15:08:31.245Z,19.77
2023-02-09T15:11:24.318Z,20.65
2023-02-09T15:13:58.945Z,20.55
2023-02-09T15:16:26.416Z,21.03
2023-02-09T15:18:53.652Z,19.73
2023-02-09T15:21:21.199Z,19.65
2023-02-09T15:23:49.260Z,19.42
2023-02-09T15:26:27.072Z,21.10
2023-02-09T15:28:54.248Z,19.65
2023-02-09T15:31:22.253Z,20.33
2023-02-09T15:33:49.661Z,21.63
2023-02-09T15:36:19.744Z,20.05
2023-02-09T15:38:47.715Z,20.40
2023-02-09T15:41:35.826Z,20.23
2023-02-09T15:44:37.664Z,21.23
2023-02-09T15:47:24.039Z,20.08
2023-02-09T15:49:51.352Z,20.30
2023-02-09T15:52:18.847Z,22.38
2023-02-09T15:54:46.268Z,22.73
2023-02-09T15:57:14.673Z,21.02
2023-02-09T15:59:42.712Z,22.05
2023-02-09T16:02:14.115Z,21.50
2023-02-09T16:04:41.519Z,22.15
2023-02-09T16:07:19.624Z,23.52
2023-02-09T16:09:46.898Z,21.80
2023-02-09T16:12:14.418Z,21.95
2023-02-09T16:14:41.453Z,22.35
2023-02-09T16:17:08.970Z,22.58
2023-02-09T16:19:35.995Z,22.08
2023-02-09T16:22:07.055Z,23.60
2023-02-09T16:24:52.499Z,22.00
2023-02-09T16:27:31.135Z,22.52
2023-02-09T16:29:58.930Z,23.15
2023-02-09T16:32:28.636Z,23.45
2023-02-09T16:35:04.465Z,23.77
2023-02-09T16:37:40.178Z,22.55
2023-02-09T16:40:28.040Z,21.40
2023-02-09T16:42:57.208Z,22.60
2023-02-09T16:45:25.324Z,24.23
2023-02-09T16:47:55.154Z,25.33
2023-02-09T16:50:33.327Z,25.75
2023-02-09T16:53:05.257Z,25.15
2023-02-09T16:55:35.304Z,25.45
2023-02-09T16:58:07.045Z,26.50
2023-02-09T17:00:37.818Z,26.83
2023-02-09T17:03:20.232Z,27.10
2023-02-09T17:05:54.115Z,26.52
2023-02-09T17:08:24.448Z,26.90
2023-02-09T17:10:54.231Z,24.83
2023-02-09T17:13:22.020Z,26.52
2023-02-09T17:15:55.606Z,27.63
2023-02-09T17:18:40.620Z,27.45
2023-02-09T17:21:12.807Z,26.27
2023-02-09T17:23:40.054Z,27.65
2023-02-09T17:26:07.330Z,27.85
2023-02-09T17:28:34.381Z,28.90
2023-02-09T17:31:03.140Z,28.15
2023-02-09T17:33:35.560Z,28.52
2023-02-09T17:38:53.856Z,27.30
2023-02-09T17:41:40.806Z,29.73
2023-02-09T17:44:24.281Z,29.85
2023-02-09T17:46:58.160Z,28.00
2023-02-09T17:49:25.158Z,29.23
2023-02-09T17:51:53.053Z,31.90
2023-02-09T17:54:21.051Z,30.42
2023-02-09T17:56:48.511Z,30.63
2023-02-09T17:59:19.918Z,30.20
2023-02-09T18:01:50.504Z,30.42
2023-02-09T18:04:23.603Z,30.10
2023-02-09T18:06:51.122Z,30.45
2023-02-09T18:09:18.194Z,32.92
2023-02-09T18:11:45.105Z,33.10
2023-02-09T18:14:16.895Z,33.10
2023-02-09T18:16:44.691Z,32.38
2023-02-09T18:19:12.624Z,32.33
2023-02-09T18:21:46.624Z,32.13
2023-02-09T18:24:14.091Z,34.95
2023-02-09T18:26:41.090Z,35.10
2023-02-09T18:29:08.707Z,35.00
2023-02-09T18:31:36.798Z,36.95
2023-02-09T18:34:05.045Z,36.22
2023-02-09T18:36:33.796Z,36.50
2023-02-09T18:39:00.834Z,39.80
2023-02-09T18:41:28.037Z,37.33
2023-02-09T18:43:56.225Z,38.22
2023-02-09T18:46:27.181Z,38.30
2023-02-09T18:48:54.908Z,38.58
2023-02-09T18:51:22.031Z,40.03
2023-02-09T18:53:51.508Z,38.92
2023-02-09T18:56:20.755Z,39.00
2023-02-09T18:58:51.776Z,37.97
2023-02-09T19:01:23.276Z,40.50
2023-02-09T19:03:54.210Z,37.60
2023-02-09T19:06:22.410Z,37.60
2023-02-09T19:08:50.442Z,38.38
2023-02-09T19:11:20.298Z,38.72
2023-02-09T19:14:08.114Z,38.28
2023-02-09T19:16:36.746Z,38.30
2023-02-09T19:19:04.340Z,36.92
2023-02-09T19:21:32.667Z,38.50
2023-02-09T19:23:59.645Z,34.50
2023-02-09T19:26:26.790Z,36.05
2023-02-09T19:28:56.820Z,36.42
2023-02-09T19:31:24.786Z,37.90
2023-02-09T19:33:57.946Z,37.80
2023-02-09T19:36:27.815Z,36.72
2023-02-09T19:38:56.285Z,34.22
2023-02-09T19:41:25.619Z,34.50
2023-02-09T19:43:57.793Z,35.65
2023-02-09T19:46:26.407Z,35.13
2023-02-09T19:48:53.991Z,33.90
2023-02-09T19:51:21.898Z,35.38
2023-02-09T19:53:49.092Z,33.70
2023-02-09T19:56:19.449Z,35.97
2023-02-09T19:58:47.768Z,33.88
2023-02-09T20:01:14.767Z,29.38
2023-02-09T20:03:42.628Z,34.20
2023-02-09T20:06:11.973Z,31.70
2023-02-09T20:08:39.567Z,32.53
2023-02-09T20:11:08.497Z,34.83
2023-02-09T20:13:36.258Z,35.05
2023-02-09T20:16:13.598Z,33.30
2023-02-09T20:18:41.396Z,33.65
2023-02-09T20:21:10.896Z,32.20
2023-02-09T20:23:38.404Z,33.42
2023-02-09T20:26:26.903Z,33.75
2023-02-09T20:28:55.543Z,32.97
2023-02-09T20:31:25.683Z,33.58
2023-02-09T20:33:53.165Z,32.85
2023-02-09T20:36:23.235Z,35.25
2023-02-09T20:38:51.588Z,35.50
2023-02-09T20:41:18.844Z,37.78
2023-02-09T20:44:04.379Z,40.95
2023-02-09T20:46:51.623Z,40.00
2023-02-09T20:49:19.460Z,36.85
2023-02-09T20:51:47.068Z,37.05
2023-02-09T20:54:15.201Z,36.83
2023-02-09T20:56:43.130Z,37.53
2023-02-09T20:59:11.840Z,38.35
2023-02-09T21:01:39.759Z,36.83
2023-02-09T21:04:07.839Z,34.58
2023-02-09T21:06:37.146Z,36.00
2023-02-09T21:09:06.208Z,36.47
2023-02-09T21:11:33.769Z,35.78
2023-02-09T21:14:03.755Z,34.72
2023-02-09T21:16:31.897Z,36.35
2023-02-09T21:18:59.946Z,36.70
2023-02-09T21:21:30.313Z,34.83
2023-02-09T21:23:57.367Z,34.85
2023-02-09T21:26:24.689Z,34.95
2023-02-09T21:28:56.200Z,33.95
2023-02-09T21:31:26.150Z,36.22
2023-02-09T21:33:53.292Z,36.22
2023-02-09T21:36:20.260Z,35.13
2023-02-09T21:38:47.676Z,35.63
2023-02-09T21:41:37.556Z,35.60
2023-02-09T21:44:05.687Z,33.42
2023-02-09T21:46:35.069Z,37.28
2023-02-09T21:49:02.523Z,34.45
2023-02-09T21:51:29.528Z,33.28
2023-02-09T21:53:56.668Z,34.65
2023-02-09T21:56:23.664Z,36.17
2023-02-09T21:58:50.944Z,36.85
2023-02-09T22:01:18.315Z,36.28
2023-02-09T22:03:49.780Z,36.53
2023-02-09T22:06:16.802Z,36.63
2023-02-09T22:08:43.761Z,36.17
2023-02-09T22:11:10.936Z,34.80
2023-02-09T22:13:37.962Z,34.38
2023-02-09T22:16:09.714Z,34.78
2023-02-09T22:18:37.575Z,35.42
2023-02-09T22:21:08.079Z,37.63
2023-02-09T22:23:35.332Z,36.20
2023-02-09T22:26:04.548Z,36.83
2023-02-09T22:28:35.045Z,34.85
2023-02-09T22:31:16.234Z,35.03
2023-02-09T22:33:43.478Z,34.33
2023-02-09T22:36:16.520Z,35.05
2023-02-09T22:38:47.438Z,36.25
2023-02-09T22:41:23.148Z,33.53
2023-02-09T22:43:52.805Z,35.30
2023-02-09T22:46:22.185Z,35.72
2023-02-09T22:49:00.282Z,40.30
2023-02-09T22:51:30.264Z,38.33
2023-02-09T22:53:58.731Z,40.88
2023-02-09T22:56:27.212Z,35.20
2023-02-09T22:58:58.162Z,41.03
2023-02-09T23:01:25.354Z,40.97
2023-02-09T23:03:52.652Z,42.03
2023-02-09T23:06:23.503Z,37.40
2023-02-09T23:08:55.534Z,33.45
2023-02-09T23:11:23.371Z,34.63
2023-02-09T23:13:55.093Z,31.52
2023-02-09T23:16:34.551Z,31.13
2023-02-09T23:19:05.084Z,33.45
2023-02-09T23:21:35.013Z,34.10
2023-02-09T23:24:02.586Z,35.63
2023-02-09T23:26:30.067Z,33.38
2023-02-09T23:29:00.053Z,36.88
2023-02-09T23:31:27.511Z,34.22
2023-02-09T23:33:55.133Z,31.42
2023-02-09T23:36:24.961Z,35.13
2023-02-09T23:38:57.991Z,31.90
2023-02-09T23:41:25.629Z,34.90
2023-02-09T23:43:53.616Z,33.05
2023-02-09T23:46:23.996Z,36.10
2023-02-09T23:48:54.992Z,33.28
2023-02-09T23:51:26.824Z,33.83
2023-02-09T23:53:55.100Z,33.13
2023-02-09T23:56:22.755Z,33.65
2023-02-09T23:58:51.397Z,33.83
